Time;durP1;ratioP1;P1;durP2;ratioP2;P2;SDS_P1;SDS_P2;PMS_P1;PMS_P2;Temp;Humidity;BMP_temperature;BMP_pressure;BME280_temperature;BME280_humidity;BME280_pressure;Samples;Min_cycle;Max_cycle;Signal;HPM_P1;HPM_P2
2022/04/19 00:00:51;;;;;;;19.00;15.00;;;10.60;40.60;;;;;;5065560;28;25090;-65
2022/04/19 00:03:17;;;;;;;21.48;15.38;;;10.70;40.20;;;;;;5065283;28;25069;-66
2022/04/19 00:05:44;;;;;;;20.25;15.88;;;10.70;39.80;;;;;;5083962;22;25093;-63
2022/04/19 00:08:11;;;;;;;21.42;16.35;;;10.70;39.60;;;;;;5062590;28;25150;-64
2022/04/19 00:10:37;;;;;;;24.75;15.73;;;10.60;40.00;;;;;;5067026;28;25138;-64
2022/04/19 00:13:05;;;;;;;21.27;15.52;;;10.50;40.90;;;;;;5067733;28;25065;-63
2022/04/19 00:15:32;;;;;;;20.10;15.68;;;10.50;41.70;;;;;;5067389;28;25134;-64
2022/04/19 00:17:59;;;;;;;21.10;15.38;;;10.50;41.90;;;;;;5046470;28;25066;-65
2022/04/19 00:20:25;;;;;;;21.48;16.50;;;10.50;41.70;;;;;;5047334;28;25081;-64
2022/04/19 00:22:52;;;;;;;18.33;14.90;;;10.50;41.90;;;;;;5049507;28;25057;-64
2022/04/19 00:25:18;;;;;;;19.15;15.75;;;10.50;41.70;;;;;;5047308;28;25114;-63
2022/04/19 00:27:45;;;;;;;23.05;17.33;;;10.50;41.90;;;;;;5047073;28;25110;-64
2022/04/19 00:30:11;;;;;;;19.02;14.88;;;10.50;42.10;;;;;;5048706;28;25081;-63
2022/04/19 00:32:38;;;;;;;18.80;16.00;;;10.50;41.90;;;;;;5048633;28;25110;-67
2022/04/19 00:35:05;;;;;;;18.10;14.98;;;10.50;41.90;;;;;;5047178;28;25148;-63
2022/04/19 00:37:31;;;;;;;19.23;15.82;;;10.50;42.10;;;;;;5047263;28;25137;-64
2022/04/19 00:39:58;;;;;;;20.10;16.08;;;10.50;42.60;;;;;;5031249;28;25070;-64
2022/04/19 00:42:28;;;;;;;21.40;15.77;;;10.50;42.80;;;;;;5049386;28;25048;-64
2022/04/19 00:44:58;;;;;;;19.88;15.43;;;10.50;42.90;;;;;;5048593;28;25069;-63
2022/04/19 00:47:25;;;;;;;18.92;15.57;;;10.50;43.40;;;;;;5045566;28;25141;-64
2022/04/19 00:49:51;;;;;;;20.10;15.48;;;10.40;44.10;;;;;;5048213;28;25090;-63
2022/04/19 00:52:17;;;;;;;22.20;15.85;;;10.40;44.50;;;;;;5048222;28;25084;-63
2022/04/19 00:54:43;;;;;;;23.65;15.52;;;10.30;44.90;;;;;;5056040;28;25071;-64
2022/04/19 00:57:10;;;;;;;21.00;16.00;;;10.30;45.40;;;;;;5060773;28;25077;-63
2022/04/19 00:59:36;;;;;;;21.77;16.60;;;10.40;45.10;;;;;;5050324;28;25060;-63
2022/04/19 01:02:03;;;;;;;16.80;14.30;;;10.50;45.00;;;;;;5048934;28;25064;-64
2022/04/19 01:04:30;;;;;;;20.95;16.05;;;10.50;44.90;;;;;;5048358;28;25058;-63
2022/04/19 01:06:57;;;;;;;20.08;15.25;;;10.60;45.00;;;;;;5050896;28;25048;-63
2022/04/19 01:09:23;;;;;;;21.17;16.05;;;10.60;44.80;;;;;;5047711;28;25099;-64
2022/04/19 01:14:38;;;;;;;22.95;17.08;;;10.50;44.30;;;;;;5048102;28;25052;-65
2022/04/19 01:17:06;;;;;;;20.88;16.85;;;10.40;45.60;;;;;;5046001;28;25141;-64
2022/04/19 01:19:34;;;;;;;20.10;16.58;;;10.30;46.30;;;;;;5048117;28;25135;-64
2022/04/19 01:21:59;;;;;;;21.55;15.88;;;10.30;46.80;;;;;;5046341;28;25059;-65
2022/04/19 01:24:25;;;;;;;23.42;15.52;;;10.30;47.20;;;;;;5046476;28;25159;-64
2022/04/19 01:26:55;;;;;;;20.60;17.42;;;10.30;47.40;;;;;;5048157;28;25073;-64
2022/04/19 01:29:21;;;;;;;20.75;16.88;;;10.30;47.70;;;;;;5048422;28;25067;-63
2022/04/19 01:31:47;;;;;;;23.23;16.80;;;10.20;48.70;;;;;;5045272;28;25058;-63
2022/04/19 01:34:13;;;;;;;22.15;17.90;;;10.10;48.90;;;;;;5046750;28;25050;-63
2022/04/19 01:36:39;;;;;;;21.23;16.90;;;10.20;49.50;;;;;;5045794;28;25144;-63
2022/04/19 01:39:06;;;;;;;22.30;17.13;;;10.20;49.30;;;;;;5045658;28;25097;-62
2022/04/19 01:41:32;;;;;;;23.35;18.25;;;10.30;49.10;;;;;;5046121;28;25090;-65
2022/04/19 01:43:59;;;;;;;21.35;17.13;;;10.30;48.70;;;;;;5045844;28;25091;-65
2022/04/19 01:46:26;;;;;;;23.45;17.73;;;10.30;48.80;;;;;;5046393;28;25162;-64
2022/04/19 01:48:54;;;;;;;19.08;16.08;;;10.30;48.80;;;;;;5046855;28;25094;-64
2022/04/19 01:51:21;;;;;;;21.15;16.35;;;10.40;47.80;;;;;;5045817;28;25061;-64
2022/04/19 01:53:46;;;;;;;22.55;16.77;;;10.30;48.00;;;;;;5046634;28;25108;-64
2022/04/19 01:56:12;;;;;;;23.80;17.35;;;10.20;48.10;;;;;;5045965;28;25110;-65
2022/04/19 01:58:38;;;;;;;23.38;17.95;;;10.20;48.80;;;;;;5044714;28;25108;-63
2022/04/19 02:01:03;;;;;;;22.98;17.98;;;10.20;48.20;;;;;;5045715;28;25086;-63
2022/04/19 02:03:29;;;;;;;23.38;18.05;;;10.30;48.80;;;;;;5045993;28;25120;-63
2022/04/19 02:05:54;;;;;;;22.38;16.95;;;10.30;48.40;;;;;;5046321;28;25104;-64
2022/04/19 02:08:20;;;;;;;30.77;17.33;;;10.40;47.90;;;;;;5046608;28;25094;-64
2022/04/19 02:10:46;;;;;;;23.25;18.05;;;10.30;47.80;;;;;;5052557;28;25110;-63
2022/04/19 02:13:13;;;;;;;24.73;17.75;;;10.30;48.00;;;;;;5051083;28;25064;-64
2022/04/19 02:15:39;;;;;;;19.17;15.88;;;10.40;47.80;;;;;;5051634;28;25045;-64
2022/04/19 02:18:05;;;;;;;20.20;16.83;;;10.40;47.60;;;;;;5050516;28;25155;-64
2022/04/19 02:20:31;;;;;;;23.60;17.33;;;10.40;46.90;;;;;;5050316;28;25115;-64
2022/04/19 02:22:57;;;;;;;23.73;16.45;;;10.30;46.20;;;;;;5049090;28;25147;-63
2022/04/19 02:25:28;;;;;;;20.48;15.75;;;10.20;45.90;;;;;;5047383;28;25147;-64
2022/04/19 02:27:54;;;;;;;18.77;14.48;;;10.20;45.60;;;;;;5049020;28;25058;-63
2022/04/19 02:30:20;;;;;;;19.50;15.82;;;10.20;43.80;;;;;;5048292;28;25073;-64
2022/04/19 02:32:47;;;;;;;23.27;15.70;;;10.10;43.30;;;;;;5048386;28;25067;-63
2022/04/19 02:35:15;;;;;;;17.55;14.52;;;10.10;43.10;;;;;;5049365;28;25072;-63
2022/04/19 02:37:51;;;;;;;20.08;15.88;;;10.10;42.20;;;;;;5047503;28;25169;-64
2022/04/19 02:40:21;;;;;;;20.20;15.43;;;10.10;43.00;;;;;;5048958;28;25109;-64
2022/04/19 02:42:48;;;;;;;21.58;15.93;;;10.10;43.50;;;;;;5049168;28;25134;-64
2022/04/19 02:45:14;;;;;;;20.27;16.23;;;10.10;43.60;;;;;;5049023;28;25085;-62
2022/04/19 02:47:41;;;;;;;28.25;19.23;;;10.00;44.70;;;;;;5048948;28;25072;-63
2022/04/19 02:50:07;;;;;;;22.85;16.50;;;9.90;45.50;;;;;;5030393;28;25055;-64
2022/04/19 02:52:33;;;;;;;21.45;17.63;;;9.80;46.70;;;;;;5049360;28;25070;-64
2022/04/19 02:54:58;;;;;;;23.98;17.80;;;9.70;47.70;;;;;;5049896;28;25082;-62
2022/04/19 02:57:25;;;;;;;23.83;17.55;;;9.70;48.70;;;;;;5051156;28;25133;-64
2022/04/19 02:59:51;;;;;;;27.48;19.23;;;9.70;49.50;;;;;;5051719;28;25072;-64
2022/04/19 03:02:18;;;;;;;23.63;17.17;;;9.60;49.60;;;;;;5050077;28;25066;-64
2022/04/19 03:04:43;;;;;;;22.98;17.30;;;9.70;50.00;;;;;;5050070;28;25115;-63
2022/04/19 03:07:09;;;;;;;20.75;16.80;;;9.70;49.50;;;;;;5032744;28;25074;-63
2022/04/19 03:09:34;;;;;;;22.77;17.63;;;9.70;50.40;;;;;;5050380;28;25078;-64
2022/04/19 03:12:01;;;;;;;24.83;18.85;;;9.70;50.20;;;;;;5049575;28;25100;-64
2022/04/19 03:14:27;;;;;;;23.15;18.55;;;9.60;51.00;;;;;;5050907;28;25167;-62
2022/04/19 03:16:52;;;;;;;26.13;20.13;;;9.40;52.10;;;;;;5047748;28;25055;-64
2022/04/19 03:19:18;;;;;;;24.02;18.75;;;9.40;53.30;;;;;;5047818;28;25105;-64
2022/04/19 03:21:44;;;;;;;22.85;18.85;;;9.40;53.30;;;;;;5046812;28;25123;-64
2022/04/19 03:29:37;;;;;;;25.35;19.88;;;9.30;56.40;;;;;;5048352;28;25064;-65
2022/04/19 03:32:03;;;;;;;29.67;21.58;;;9.20;57.30;;;;;;5047900;28;25078;-64
2022/04/19 03:34:29;;;;;;;31.13;20.40;;;9.20;57.80;;;;;;5047418;28;25077;-64
2022/04/19 03:36:54;;;;;;;28.75;20.20;;;9.20;58.00;;;;;;5048567;28;25081;-63
2022/04/19 03:39:20;;;;;;;26.30;20.83;;;9.10;59.10;;;;;;5052319;28;25068;-64
2022/04/19 03:41:45;;;;;;;24.58;19.80;;;9.10;60.60;;;;;;5052973;28;25059;-64
2022/04/19 03:44:12;;;;;;;24.73;20.05;;;9.10;61.10;;;;;;5050072;28;25067;-64
2022/04/19 03:47:07;;;;;;;24.50;19.13;;;9.20;60.30;;;;;;5048942;28;25073;-64
2022/04/19 03:49:27;;;;;;;24.98;19.60;;;9.10;60.80;;;;;;5046674;28;25099;-63
2022/04/19 03:51:52;;;;;;;25.92;20.15;;;9.10;60.10;;;;;;5048025;28;25068;-63
2022/04/19 03:54:18;;;;;;;29.38;19.83;;;9.10;59.30;;;;;;5047524;28;25061;-65
2022/04/19 03:56:44;;;;;;;25.88;19.27;;;9.10;58.90;;;;;;5030441;28;25051;-64
2022/04/19 03:59:10;;;;;;;28.30;19.20;;;9.00;60.90;;;;;;5048253;28;25070;-65
2022/04/19 04:01:38;;;;;;;27.35;19.75;;;9.00;62.10;;;;;;5048902;28;25071;-64
2022/04/19 04:04:07;;;;;;;28.13;21.02;;;8.80;62.20;;;;;;5044548;28;25079;-64
2022/04/19 04:06:35;;;;;;;29.70;21.40;;;8.70;63.50;;;;;;5047201;28;25128;-64
2022/04/19 04:09:02;;;;;;;29.30;21.20;;;8.80;65.50;;;;;;5046188;28;25115;-63
2022/04/19 04:11:27;;;;;;;29.58;19.92;;;8.80;64.90;;;;;;5046209;28;25083;-63
2022/04/19 04:13:53;;;;;;;27.92;20.77;;;8.80;65.50;;;;;;5048510;28;25064;-64
2022/04/19 04:16:18;;;;;;;27.63;20.85;;;8.80;65.60;;;;;;5046218;28;25144;-63
2022/04/19 04:18:44;;;;;;;26.88;19.90;;;8.90;64.50;;;;;;5047467;28;25061;-63
2022/04/19 04:21:09;;;;;;;30.45;21.33;;;9.00;64.30;;;;;;5045610;28;25067;-64
2022/04/19 04:23:35;;;;;;;25.70;20.77;;;8.90;63.80;;;;;;5047488;28;25086;-64
2022/04/19 04:26:00;;;;;;;28.27;20.67;;;8.70;65.10;;;;;;5050415;28;25063;-64
2022/04/19 04:28:26;;;;;;;31.52;19.70;;;8.70;65.60;;;;;;5050752;28;25081;-65
2022/04/19 04:30:52;;;;;;;26.27;20.70;;;8.70;65.20;;;;;;5050093;28;25059;-64
2022/04/19 04:33:17;;;;;;;26.65;20.60;;;8.60;66.50;;;;;;5046103;28;25099;-64
2022/04/19 04:35:43;;;;;;;25.98;20.08;;;8.60;67.90;;;;;;5047543;28;25056;-64
2022/04/19 04:38:09;;;;;;;28.40;18.70;;;8.60;66.90;;;;;;5046141;28;25090;-64
2022/04/19 04:40:35;;;;;;;25.83;18.80;;;8.70;67.40;;;;;;5044998;28;25135;-65
2022/04/19 04:43:00;;;;;;;24.98;19.08;;;8.70;66.40;;;;;;5043518;28;25055;-63
2022/04/19 04:45:26;;;;;;;25.83;19.38;;;8.80;65.90;;;;;;5044057;28;25087;-63
2022/04/19 04:50:36;;;;;;;27.42;20.23;;;8.70;65.10;;;;;;5047017;28;25089;-63
2022/04/19 04:53:02;;;;;;;27.77;19.70;;;8.80;65.40;;;;;;5046882;28;25136;-63
2022/04/19 04:55:28;;;;;;;31.65;19.77;;;8.70;65.60;;;;;;5043195;28;25149;-64
2022/04/19 04:57:57;;;;;;;29.17;19.60;;;8.70;67.00;;;;;;5044312;28;25070;-64
2022/04/19 05:00:27;;;;;;;30.58;21.00;;;8.70;66.50;;;;;;5044287;28;25053;-64
2022/04/19 05:02:52;;;;;;;30.23;19.40;;;8.70;66.80;;;;;;5044154;28;25099;-64
2022/04/19 05:05:18;;;;;;;29.00;19.05;;;8.80;66.40;;;;;;5043863;28;25112;-64
2022/04/19 05:07:43;;;;;;;26.75;19.92;;;8.90;65.50;;;;;;5044245;28;25132;-63
2022/04/19 05:10:09;;;;;;;31.45;18.85;;;8.80;65.20;;;;;;5028528;28;25051;-65
2022/04/19 05:12:35;;;;;;;31.25;19.13;;;8.80;66.80;;;;;;5027945;28;25083;-64
2022/04/19 05:15:01;;;;;;;33.88;19.80;;;8.80;67.20;;;;;;5046497;28;25086;-64
2022/04/19 05:17:27;;;;;;;24.40;17.90;;;8.80;68.20;;;;;;5044715;28;25120;-64
2022/04/19 05:19:54;;;;;;;26.60;18.48;;;8.90;68.60;;;;;;5044277;28;25053;-65
2022/04/19 05:22:20;;;;;;;27.75;18.20;;;8.90;67.20;;;;;;5042983;28;25072;-64
2022/04/19 05:24:46;;;;;;;28.90;19.23;;;9.00;66.40;;;;;;5046569;28;25123;-64
2022/04/19 05:27:11;;;;;;;31.75;19.83;;;9.00;66.00;;;;;;5044554;28;25085;-64
2022/04/19 05:29:37;;;;;;;35.63;20.15;;;9.00;65.10;;;;;;5046644;28;25130;-65
2022/04/19 05:32:02;;;;;;;39.08;20.42;;;9.10;65.00;;;;;;5045712;28;25092;-64
2022/04/19 05:34:28;;;;;;;27.83;20.25;;;9.10;66.10;;;;;;5046409;28;25125;-63
2022/04/19 05:36:53;;;;;;;27.67;18.73;;;9.10;66.70;;;;;;5045243;28;25149;-64
2022/04/19 05:39:19;;;;;;;27.30;18.45;;;9.10;65.60;;;;;;5045065;28;25164;-64
2022/04/19 05:41:44;;;;;;;22.13;17.27;;;9.10;63.90;;;;;;5047755;28;25081;-64
2022/04/19 05:44:10;;;;;;;29.73;16.65;;;9.20;61.50;;;;;;5049998;28;25066;-65
2022/04/19 05:46:36;;;;;;;22.33;15.35;;;9.30;59.30;;;;;;5050880;28;25148;-64
2022/04/19 05:49:04;;;;;;;23.30;16.05;;;9.30;56.10;;;;;;5047029;28;25127;-64
2022/04/19 05:51:30;;;;;;;21.60;16.17;;;9.50;53.60;;;;;;5044959;28;25075;-64
2022/04/19 05:53:55;;;;;;;21.02;15.25;;;9.60;50.40;;;;;;5046191;28;25048;-65
2022/04/19 05:56:21;;;;;;;22.88;16.10;;;9.70;49.50;;;;;;5045089;28;25102;-66
2022/04/19 05:58:46;;;;;;;23.10;14.80;;;9.90;47.40;;;;;;5048206;28;25094;-64
2022/04/19 06:01:12;;;;;;;23.58;16.17;;;10.10;45.90;;;;;;5046868;28;25149;-63
2022/04/19 06:06:22;;;;;;;21.15;15.45;;;10.30;44.00;;;;;;5059491;22;25056;-68
2022/04/19 06:08:49;;;;;;;22.50;14.98;;;10.40;43.60;;;;;;5062115;28;25053;-69
2022/04/19 06:11:15;;;;;;;20.98;14.32;;;10.50;42.10;;;;;;5043503;28;25077;-68
2022/04/19 06:13:41;;;;;;;19.02;14.05;;;10.50;39.40;;;;;;5061842;28;25075;-71
2022/04/19 06:16:08;;;;;;;22.65;15.38;;;10.50;38.70;;;;;;5054657;28;25152;-69
2022/04/19 06:18:34;;;;;;;22.90;14.43;;;10.70;37.70;;;;;;5052467;28;25117;-70
2022/04/19 06:21:00;;;;;;;22.75;15.38;;;10.80;36.80;;;;;;5050459;28;25070;-70
2022/04/19 06:23:26;;;;;;;20.25;14.43;;;10.90;34.60;;;;;;5050870;28;25116;-69
2022/04/19 06:25:52;;;;;;;22.55;14.02;;;10.90;33.70;;;;;;5051781;28;25089;-70
2022/04/19 06:28:18;;;;;;;28.20;14.48;;;11.00;33.30;;;;;;5032219;28;25097;-70
2022/04/19 06:30:43;;;;;;;25.08;14.45;;;11.10;31.50;;;;;;5034394;28;25061;-69
2022/04/19 06:33:09;;;;;;;27.15;15.18;;;11.10;32.00;;;;;;5039867;28;25781;-70
2022/04/19 06:35:35;;;;;;;18.50;14.07;;;11.20;31.70;;;;;;5053480;28;25082;-69
2022/04/19 06:38:00;;;;;;;23.73;13.85;;;11.20;31.10;;;;;;5055455;28;25153;-69
2022/04/19 06:40:26;;;;;;;19.33;13.90;;;11.30;30.90;;;;;;5053857;28;25054;-68
2022/04/19 06:42:51;;;;;;;23.40;15.05;;;11.40;30.50;;;;;;5055719;28;25145;-70
2022/04/19 06:45:18;;;;;;;21.02;14.75;;;11.50;30.20;;;;;;5055034;28;25068;-71
2022/04/19 06:47:44;;;;;;;23.30;14.52;;;11.60;30.20;;;;;;5055165;28;25056;-71
2022/04/19 06:50:10;;;;;;;23.52;14.77;;;11.60;30.10;;;;;;5034232;28;25097;-69
2022/04/19 06:53:00;;;;;;;22.27;14.60;;;11.70;29.60;;;;;;5057386;28;25065;-71
2022/04/19 06:55:26;;;;;;;25.65;13.85;;;11.80;29.10;;;;;;5032846;28;25158;-70
2022/04/19 06:57:53;;;;;;;26.77;13.57;;;11.80;28.50;;;;;;5058893;28;25076;-70
2022/04/19 07:00:18;;;;;;;19.83;13.63;;;12.10;28.90;;;;;;5058504;28;25157;-72
2022/04/19 07:02:44;;;;;;;21.90;14.75;;;12.10;26.70;;;;;;5056943;28;25143;-70
2022/04/19 07:05:11;;;;;;;20.08;13.98;;;12.30;26.20;;;;;;5035859;28;25062;-70
2022/04/19 07:07:42;;;;;;;20.38;13.45;;;12.30;24.50;;;;;;5057653;28;25119;-70
2022/04/19 07:10:10;;;;;;;21.27;13.60;;;12.40;23.70;;;;;;5037700;28;25113;-71
2022/04/19 07:12:36;;;;;;;20.55;12.43;;;12.50;22.80;;;;;;5036100;28;25075;-71
2022/04/19 07:15:02;;;;;;;18.40;13.23;;;12.40;20.60;;;;;;5056350;28;25067;-70
2022/04/19 07:17:27;;;;;;;19.85;13.93;;;12.40;20.10;;;;;;5056246;28;25065;-68
2022/04/19 07:28:11;;;;;;;19.88;13.07;;;13.10;17.50;;;;;;5053752;28;25070;-71
2022/04/19 07:30:37;;;;;;;20.27;12.70;;;13.20;15.90;;;;;;5054165;28;25055;-69
2022/04/19 07:33:05;;;;;;;19.15;12.38;;;13.20;15.60;;;;;;5038951;28;25076;-70
2022/04/19 07:35:39;;;;;;;17.77;11.98;;;13.30;15.30;;;;;;5055153;28;25054;-69
2022/04/19 07:38:20;;;;;;;19.60;12.02;;;13.50;13.60;;;;;;5058361;28;25071;-70
2022/04/19 07:40:46;;;;;;;20.00;11.75;;;13.70;12.40;;;;;;5035282;28;25102;-70
2022/04/19 07:43:11;;;;;;;19.65;12.77;;;14.10;11.90;;;;;;5055495;28;25106;-70
2022/04/19 07:46:15;;;;;;;15.75;11.55;;;14.30;11.80;;;;;;5051846;28;25057;-69
2022/04/19 07:49:05;;;;;;;15.13;10.50;;;14.40;9.10;;;;;;5054128;28;25099;-68
2022/04/19 07:51:31;;;;;;;16.15;11.18;;;14.60;8.80;;;;;;5034396;28;25052;-70
2022/04/19 07:53:57;;;;;;;14.93;10.48;;;15.00;8.90;;;;;;5056208;28;25046;-70
2022/04/19 07:56:22;;;;;;;16.08;10.65;;;15.20;5.90;;;;;;5054844;28;25068;-70
2022/04/19 07:58:49;;;;;;;14.35;9.98;;;15.00;5.10;;;;;;5049003;28;25052;-69
2022/04/19 08:01:16;;;;;;;14.23;9.52;;;15.10;5.10;;;;;;5058937;28;25090;-71
2022/04/19 08:03:42;;;;;;;12.15;9.20;;;15.00;5.80;;;;;;5065562;28;25078;-70
2022/04/19 08:06:07;;;;;;;13.00;9.77;;;15.40;6.20;;;;;;5071383;28;25048;-71
2022/04/19 08:08:34;;;;;;;17.73;9.55;;;15.30;4.20;;;;;;5068262;28;25092;-71
2022/04/19 08:11:00;;;;;;;13.77;9.13;;;15.50;5.00;;;;;;5068179;28;25208;-70
2022/04/19 08:13:27;;;;;;;12.48;9.52;;;15.70;3.60;;;;;;5067647;28;25091;-70
2022/04/19 08:15:52;;;;;;;13.65;9.52;;;15.70;3.90;;;;;;5072427;28;25043;-70
2022/04/19 08:18:19;;;;;;;12.43;9.45;;;15.80;3.20;;;;;;5067602;28;25065;-71
2022/04/19 08:20:45;;;;;;;12.80;8.77;;;15.80;3.60;;;;;;5064206;28;25068;-71
2022/04/19 08:23:12;;;;;;;11.88;8.93;;;15.70;3.10;;;;;;5059360;28;25070;-70
2022/04/19 08:25:38;;;;;;;12.82;7.95;;;15.80;2.00;;;;;;5060770;28;25060;-68
2022/04/19 08:28:05;;;;;;;13.13;8.52;;;15.90;1.00;;;;;;5068367;28;25135;-70
2022/04/19 08:30:31;;;;;;;14.10;9.27;;;15.70;1.20;;;;;;5040598;28;25094;-69
2022/04/19 08:32:57;;;;;;;13.50;9.82;;;15.70;1.80;;;;;;5056068;28;25149;-67
2022/04/19 08:35:23;;;;;;;17.05;9.00;;;16.10;2.50;;;;;;5036124;28;25139;-71
2022/04/19 08:37:49;;;;;;;11.15;9.10;;;16.70;2.30;;;;;;5052993;28;25171;-69
2022/04/19 08:40:16;;;;;;;11.45;8.98;;;16.90;1.00;;;;;;5058122;28;25083;-70
2022/04/19 08:42:43;;;;;;;14.90;8.98;;;16.60;1.00;;;;;;5039367;28;25100;-70
2022/04/19 08:45:11;;;;;;;10.75;8.27;;;16.70;1.00;;;;;;5056726;28;25070;-68
2022/04/19 08:47:42;;;;;;;12.60;9.05;;;16.20;1.00;;;;;;5058988;28;25072;-66
2022/04/19 08:50:12;;;;;;;12.70;7.85;;;16.30;1.00;;;;;;5047832;28;25105;-70
2022/04/19 08:52:39;;;;;;;13.35;8.68;;;16.80;1.00;;;;;;5046302;28;25103;-70
2022/04/19 08:57:50;;;;;;;10.27;7.45;;;16.80;1.00;;;;;;5065954;28;25126;-70
2022/04/19 09:00:18;;;;;;;10.80;7.55;;;17.10;1.00;;;;;;5057159;28;25139;-68
2022/04/19 09:02:44;;;;;;;9.63;6.78;;;17.00;1.00;;;;;;5039467;28;25088;-69
2022/04/19 09:05:17;;;;;;;9.30;6.70;;;16.90;1.00;;;;;;5055488;28;25069;-70
2022/04/19 09:07:45;;;;;;;11.77;7.30;;;17.10;1.00;;;;;;5052531;28;25070;-70
2022/04/19 09:10:15;;;;;;;11.73;7.50;;;17.10;1.00;;;;;;5064830;28;25071;-71
2022/04/19 09:13:05;;;;;;;11.90;7.00;;;17.20;1.00;;;;;;5069271;28;25047;-70
2022/04/19 09:15:44;;;;;;;9.93;6.50;;;17.20;1.00;;;;;;5071349;28;25068;-72
2022/04/19 09:18:33;;;;;;;9.20;5.65;;;16.90;1.00;;;;;;5069180;28;25050;-69
2022/04/19 09:21:00;;;;;;;8.55;5.10;;;17.20;1.00;;;;;;5066944;28;25066;-70
2022/04/19 09:23:27;;;;;;;7.57;5.43;;;17.10;1.00;;;;;;5057813;28;25141;-69
2022/04/19 09:25:56;;;;;;;10.73;6.40;;;16.90;1.00;;;;;;5057995;28;25045;-71
2022/04/19 09:28:22;;;;;;;11.40;5.75;;;17.20;1.00;;;;;;5056435;28;25068;-72
2022/04/19 09:30:53;;;;;;;12.73;6.18;;;17.40;1.00;;;;;;5059302;28;25077;-69
2022/04/19 09:33:20;;;;;;;10.45;6.05;;;17.60;1.00;;;;;;5056729;28;25087;-69
2022/04/19 09:36:09;;;;;;;8.57;6.60;;;17.60;1.00;;;;;;5056512;28;25093;-69
2022/04/19 09:38:40;;;;;;;9.10;5.90;;;17.70;1.00;;;;;;5038351;28;25076;-69
2022/04/19 09:41:29;;;;;;;10.47;6.20;;;17.60;1.00;;;;;;5055532;28;25141;-70
2022/04/19 09:44:13;;;;;;;9.95;5.88;;;17.60;1.00;;;;;;5055353;28;25230;-69
2022/04/19 09:46:38;;;;;;;12.43;6.63;;;17.40;1.00;;;;;;5055548;28;25197;-70
2022/04/19 09:49:05;;;;;;;10.25;6.50;;;17.30;1.00;;;;;;5059017;28;25107;-70
2022/04/19 09:51:32;;;;;;;9.45;6.40;;;17.20;1.00;;;;;;5059888;28;25068;-69
2022/04/19 09:53:57;;;;;;;9.70;6.70;;;17.50;1.00;;;;;;5054235;28;25076;-70
2022/04/19 09:56:23;;;;;;;10.27;6.88;;;17.70;1.00;;;;;;5058855;28;25057;-69
2022/04/19 09:58:50;;;;;;;11.18;6.68;;;17.40;1.00;;;;;;5057129;28;25133;-69
2022/04/19 10:09:26;;;;;;;10.68;5.88;;;18.00;1.00;;;;;;5055060;28;25056;-69
2022/04/19 10:11:52;;;;;;;10.00;5.07;;;18.20;1.00;;;;;;5054966;28;25074;-70
2022/04/19 10:14:21;;;;;;;10.98;5.53;;;18.30;1.00;;;;;;5037978;28;25143;-69
2022/04/19 10:16:48;;;;;;;8.82;5.57;;;18.40;1.00;;;;;;5056399;28;25051;-70
2022/04/19 10:19:16;;;;;;;7.22;5.35;;;18.30;1.00;;;;;;5052931;28;25070;-71
2022/04/19 10:21:47;;;;;;;10.85;5.55;;;18.70;1.00;;;;;;5052962;28;25071;-70
2022/04/19 10:24:15;;;;;;;11.52;6.05;;;19.20;1.00;;;;;;5055157;28;25072;-70
2022/04/19 10:26:51;;;;;;;10.48;6.00;;;19.20;1.00;;;;;;5020011;28;25100;-70
2022/04/19 10:29:20;;;;;;;8.38;5.28;;;19.00;1.00;;;;;;5053260;28;25070;-69
2022/04/19 10:32:01;;;;;;;10.35;5.15;;;19.10;1.00;;;;;;5055649;28;25147;-70
2022/04/19 10:34:29;;;;;;;10.07;5.47;;;19.00;1.00;;;;;;5058652;28;25064;-72
2022/04/19 10:37:01;;;;;;;11.77;5.72;;;18.80;1.00;;;;;;5040702;28;25097;-70
2022/04/19 10:39:32;;;;;;;8.10;5.70;;;18.80;1.00;;;;;;5042030;28;25154;-70
2022/04/19 10:42:03;;;;;;;13.75;5.82;;;18.70;1.00;;;;;;5062411;28;25102;-67
2022/04/19 10:44:36;;;;;;;13.13;6.22;;;18.20;1.00;;;;;;5043917;28;25069;-70
2022/04/19 10:47:16;;;;;;;10.30;5.88;;;18.20;1.00;;;;;;5075421;22;25050;-64
2022/04/19 10:50:06;;;;;;;8.52;6.10;;;18.20;1.00;;;;;;5068067;28;25128;-62
2022/04/19 10:52:42;;;;;;;12.43;6.35;;;18.40;1.00;;;;;;5066944;28;25090;-63
2022/04/19 10:55:18;;;;;;;11.07;6.25;;;18.60;1.00;;;;;;5068074;28;25069;-63
2022/04/19 10:58:09;;;;;;;9.90;6.85;;;18.60;1.00;;;;;;5070378;28;25151;-64
2022/04/19 11:00:41;;;;;;;10.18;5.90;;;18.80;1.00;;;;;;5051577;28;25073;-63
2022/04/19 11:03:09;;;;;;;11.10;6.65;;;18.90;1.00;;;;;;5069449;28;25095;-63
2022/04/19 11:05:46;;;;;;;9.13;6.20;;;19.10;1.00;;;;;;5050402;28;25078;-62
2022/04/19 11:08:25;;;;;;;13.85;7.45;;;19.10;1.00;;;;;;5068020;28;25066;-62
2022/04/19 11:11:01;;;;;;;9.75;6.32;;;19.30;1.00;;;;;;5068653;28;24855;-64
2022/04/19 11:13:38;;;;;;;15.75;6.55;;;19.40;1.00;;;;;;5067578;28;25118;-64
2022/04/19 11:16:13;;;;;;;14.75;6.35;;;19.50;1.00;;;;;;5067861;28;25076;-64
2022/04/19 11:18:41;;;;;;;11.65;7.00;;;19.50;1.00;;;;;;5068400;28;25075;-62
2022/04/19 11:21:12;;;;;;;8.35;5.25;;;19.90;1.00;;;;;;5067613;28;25059;-62
2022/04/19 11:23:49;;;;;;;8.73;5.38;;;19.70;1.00;;;;;;5067669;28;25062;-63
2022/04/19 11:26:26;;;;;;;11.05;5.63;;;19.70;1.00;;;;;;5071707;28;25059;-63
2022/04/19 11:29:10;;;;;;;11.88;5.55;;;19.30;1.00;;;;;;5075497;28;25106;-63
2022/04/19 11:31:56;;;;;;;11.23;6.85;;;19.30;1.00;;;;;;5068196;28;25095;-62
2022/04/19 11:34:23;;;;;;;9.95;6.97;;;19.00;1.00;;;;;;5067620;28;25140;-62
2022/04/19 11:36:49;;;;;;;10.32;5.57;;;19.10;1.00;;;;;;5067765;28;25070;-64
2022/04/19 11:46:44;;;;;;;9.48;5.97;;;19.40;1.00;;;;;;5066592;28;25066;-63
2022/04/19 11:47:58;;;;;;;8.07;5.85;;;20.30;1.00;;;;;;5068630;28;25171;-64
2022/04/19 11:50:31;;;;;;;12.57;6.55;;;20.30;1.00;;;;;;5068574;28;25138;-63
2022/04/19 11:52:58;;;;;;;10.65;6.60;;;19.80;1.00;;;;;;5067973;28;25160;-62
2022/04/19 11:55:27;;;;;;;10.93;6.18;;;19.60;1.00;;;;;;5068385;28;25065;-62
2022/04/19 11:58:05;;;;;;;12.50;6.85;;;19.40;1.00;;;;;;5068552;28;25109;-63
2022/04/19 12:00:31;;;;;;;10.40;6.60;;;19.90;1.00;;;;;;5068422;28;25058;-63
2022/04/19 12:02:58;;;;;;;10.68;6.85;;;20.10;1.00;;;;;;5069588;28;25118;-64
2022/04/19 12:05:27;;;;;;;12.48;6.57;;;20.50;1.00;;;;;;5069973;28;25069;-62
2022/04/19 12:07:55;;;;;;;11.52;7.18;;;20.60;1.00;;;;;;5070047;28;25110;-62
2022/04/19 12:10:21;;;;;;;18.35;7.45;;;20.20;1.00;;;;;;5067773;28;25097;-61
2022/04/19 12:12:47;;;;;;;14.65;7.63;;;20.00;1.00;;;;;;5067734;28;25076;-62
2022/04/19 12:15:12;;;;;;;13.80;7.90;;;19.50;1.00;;;;;;5067222;28;25099;-62
2022/04/19 12:17:45;;;;;;;12.73;7.47;;;19.80;1.00;;;;;;5067954;28;25102;-63
2022/04/19 12:20:10;;;;;;;13.75;7.32;;;19.80;1.00;;;;;;5068322;28;25061;-63
2022/04/19 12:22:36;;;;;;;10.57;6.95;;;19.80;1.00;;;;;;5066885;28;25134;-62
2022/04/19 12:25:03;;;;;;;9.95;6.28;;;19.60;1.00;;;;;;5067479;28;25137;-63
2022/04/19 12:27:35;;;;;;;12.55;7.35;;;20.00;1.00;;;;;;5068326;28;25186;-62
2022/04/19 12:30:11;;;;;;;13.68;7.40;;;20.40;1.00;;;;;;5067686;28;25119;-63
2022/04/19 12:32:50;;;;;;;13.25;7.45;;;19.90;1.00;;;;;;5067321;28;25058;-63
2022/04/19 12:35:17;;;;;;;12.15;7.78;;;20.00;1.00;;;;;;5049377;28;25103;-63
2022/04/19 12:37:43;;;;;;;10.63;7.35;;;20.30;1.00;;;;;;5065562;28;25140;-61
2022/04/19 12:40:09;;;;;;;11.80;6.95;;;20.30;1.00;;;;;;5066582;28;25075;-64
2022/04/19 12:42:51;;;;;;;11.90;7.20;;;20.30;1.00;;;;;;5062439;28;25095;-64
2022/04/19 12:45:17;;;;;;;;;;;20.10;1.00;;;;;;5063568;28;25068;-60
2022/04/19 12:47:47;;;;;;;11.02;7.00;;;19.80;1.00;;;;;;5047116;28;25144;-62
2022/04/19 12:50:19;;;;;;;13.27;6.93;;;20.40;1.00;;;;;;5068812;28;25066;-63
2022/04/19 12:52:46;;;;;;;14.13;8.02;;;20.90;1.00;;;;;;5064406;28;25050;-61
2022/04/19 12:55:12;;;;;;;13.13;7.22;;;20.00;1.00;;;;;;5065080;28;25057;-61
2022/04/19 12:57:42;;;;;;;12.93;7.03;;;19.80;1.00;;;;;;5066626;28;25108;-63
2022/04/19 13:00:09;;;;;;;12.93;6.80;;;20.10;1.00;;;;;;5066613;28;25070;-62
2022/04/19 13:02:36;;;;;;;12.63;6.85;;;19.90;1.00;;;;;;5063642;28;25056;-62
2022/04/19 13:05:02;;;;;;;9.55;6.25;;;20.20;1.00;;;;;;5065675;28;25050;-62
2022/04/19 13:12:50;;;;;;;12.05;6.00;;;20.40;1.00;;;;;;5065200;28;25090;-63
2022/04/19 13:15:16;;;;;;;8.73;5.80;;;20.30;1.00;;;;;;5065511;28;25052;-63
2022/04/19 13:17:42;;;;;;;11.57;6.50;;;20.10;1.00;;;;;;5066083;28;25078;-63
2022/04/19 13:20:09;;;;;;;9.25;6.20;;;20.00;1.00;;;;;;5066473;28;25152;-63
2022/04/19 13:22:36;;;;;;;10.70;6.88;;;20.20;1.00;;;;;;5066032;28;25071;-63
2022/04/19 13:25:07;;;;;;;10.75;6.20;;;20.10;1.00;;;;;;5065911;28;25154;-63
2022/04/19 13:27:36;;;;;;;12.60;7.03;;;20.00;1.00;;;;;;5067317;28;25159;-62